Time;durP1;ratioP1;P1;durP2;ratioP2;P2;SDS_P1;SDS_P2;PMS_P1;PMS_P2;Temp;Humidity;BMP_temperature;BMP_pressure;BME280_temperature;BME280_humidity;BME280_pressure;Samples;Min_cycle;Max_cycle;Signal;HPM_P1;HPM_P2
2023/12/03 00:01:38;;;;;;;43.80;15.87;;;-3.10;99.90;;;;;;4449019;28;660304;-70
2023/12/03 00:04:25;;;;;;;52.47;17.50;;;-3.20;99.90;;;;;;4438231;28;659923;-70
2023/12/03 00:07:12;;;;;;;38.73;14.93;;;-3.30;99.90;;;;;;4453013;27;659240;-70
2023/12/03 00:10:00;;;;;;;47.87;16.57;;;-3.20;99.90;;;;;;4460658;28;660075;-70
2023/12/03 00:12:47;;;;;;;44.67;12.43;;;-3.30;99.90;;;;;;4457596;27;659752;-70
2023/12/03 00:15:34;;;;;;;37.50;10.90;;;-3.30;99.90;;;;;;4433929;28;659869;-70
2023/12/03 00:18:22;;;;;;;45.93;15.47;;;-3.30;99.90;;;;;;4450978;28;659441;-70
2023/12/03 00:21:10;;;;;;;45.00;14.60;;;-3.30;99.90;;;;;;4423296;28;660428;-70
2023/12/03 00:23:57;;;;;;;43.03;12.43;;;-3.30;99.90;;;;;;4445753;28;659879;-70
2023/12/03 00:26:45;;;;;;;57.30;17.03;;;-3.30;99.90;;;;;;4452966;28;660641;-70
2023/12/03 00:29:32;;;;;;;55.47;16.83;;;-3.30;99.90;;;;;;4458459;28;659562;-72
2023/12/03 00:32:19;;;;;;;63.20;18.50;;;-3.30;99.90;;;;;;4435694;28;660918;-70
2023/12/03 00:35:09;;;;;;;42.07;13.00;;;-3.40;99.90;;;;;;4452306;28;660274;-70
2023/12/03 00:37:56;;;;;;;35.43;11.60;;;-3.30;99.90;;;;;;4412863;28;659843;-70
2023/12/03 00:40:43;;;;;;;58.57;20.00;;;-3.30;99.90;;;;;;4433941;28;660326;-72
2023/12/03 00:43:30;;;;;;;70.33;19.10;;;-3.40;99.90;;;;;;4455591;27;660801;-72
2023/12/03 00:46:17;;;;;;;45.63;12.87;;;-3.30;99.90;;;;;;4436740;27;659855;-70
2023/12/03 00:49:05;;;;;;;52.00;16.03;;;-3.30;99.90;;;;;;4450152;28;660325;-70
2023/12/03 00:51:54;;;;;;;62.93;20.77;;;-3.30;99.90;;;;;;4433277;28;659913;-70
2023/12/03 00:54:41;;;;;;;24.20;9.53;;;-3.30;99.90;;;;;;4430034;28;659315;-70
2023/12/03 00:57:29;;;;;;;66.00;19.97;;;-3.20;99.90;;;;;;4432205;28;658592;-72
2023/12/03 01:00:17;;;;;;;39.43;12.57;;;-3.30;99.90;;;;;;4448365;27;659311;-70
2023/12/03 01:03:04;;;;;;;60.90;17.30;;;-3.30;99.90;;;;;;4422826;28;661022;-70
2023/12/03 01:05:52;;;;;;;44.63;12.57;;;-3.30;99.90;;;;;;4443949;28;659621;-70
2023/12/03 01:08:40;;;;;;;61.80;20.93;;;-3.20;99.90;;;;;;4433912;28;659528;-70
2023/12/03 01:11:27;;;;;;;51.30;17.23;;;-3.30;99.90;;;;;;4424767;28;659704;-70
2023/12/03 01:14:15;;;;;;;41.60;13.60;;;-3.30;99.90;;;;;;4448625;28;659767;-70
2023/12/03 01:17:02;;;;;;;81.67;26.33;;;-3.20;99.90;;;;;;4456672;27;659287;-70
2023/12/03 01:19:49;;;;;;;67.40;22.73;;;-3.30;99.90;;;;;;4430307;28;660054;-70
2023/12/03 01:22:36;;;;;;;56.50;17.13;;;-3.30;99.90;;;;;;4452378;28;659225;-70
2023/12/03 01:25:25;;;;;;;68.87;22.07;;;-3.30;99.90;;;;;;4421169;28;659460;-70
2023/12/03 01:28:13;;;;;;;73.80;24.40;;;-3.30;99.90;;;;;;4451142;28;659714;-70
2023/12/03 01:31:00;;;;;;;68.50;21.50;;;-3.30;99.90;;;;;;4447106;28;660944;-72
2023/12/03 01:33:47;;;;;;;79.00;26.60;;;-3.30;99.90;;;;;;4444520;28;659400;-70
2023/12/03 01:36:34;;;;;;;76.30;25.60;;;-3.30;99.90;;;;;;4442362;28;659530;-70
2023/12/03 01:39:22;;;;;;;24.47;9.63;;;-3.40;99.90;;;;;;4449842;28;659149;-70
2023/12/03 01:42:10;;;;;;;85.37;25.03;;;-3.30;99.90;;;;;;4434102;28;660293;-70
2023/12/03 01:44:58;;;;;;;64.07;22.83;;;-3.40;99.90;;;;;;4426078;28;659967;-70
2023/12/03 01:47:45;;;;;;;99.10;30.27;;;-3.40;99.90;;;;;;4452211;28;660452;-70
2023/12/03 01:50:32;;;;;;;39.07;15.37;;;-3.30;99.90;;;;;;4446708;28;659747;-72
2023/12/03 01:53:20;;;;;;;79.30;27.67;;;-3.40;99.90;;;;;;4455717;28;659618;-72
2023/12/03 01:56:08;;;;;;;28.90;11.77;;;-3.40;99.90;;;;;;4441245;28;659910;-70
2023/12/03 01:58:56;;;;;;;52.93;18.37;;;-3.40;99.90;;;;;;4436657;28;661216;-70
2023/12/03 02:01:43;;;;;;;57.93;19.97;;;-3.40;99.90;;;;;;4425264;28;661399;-70
2023/12/03 02:04:31;;;;;;;73.30;27.30;;;-3.40;99.90;;;;;;4455065;28;660608;-72
2023/12/03 02:07:18;;;;;;;71.73;21.50;;;-3.50;99.90;;;;;;4425214;28;660089;-72
2023/12/03 02:10:06;;;;;;;49.83;17.77;;;-3.50;99.90;;;;;;4441344;28;661131;-71
2023/12/03 02:12:53;;;;;;;77.27;26.83;;;-3.50;99.90;;;;;;4422207;28;660594;-70
2023/12/03 02:15:42;;;;;;;35.97;13.60;;;-3.60;99.90;;;;;;4452545;28;660692;-70
2023/12/03 02:18:30;;;;;;;22.87;8.97;;;-3.60;99.90;;;;;;4435352;28;660715;-70
2023/12/03 02:21:17;;;;;;;28.93;11.10;;;-3.60;99.90;;;;;;4445255;28;658632;-70
2023/12/03 02:24:06;;;;;;;37.80;13.23;;;-3.70;99.90;;;;;;4459289;28;659350;-70
2023/12/03 02:26:53;;;;;;;37.60;14.57;;;-3.80;99.90;;;;;;4433254;28;659734;-70
2023/12/03 02:29:41;;;;;;;45.50;15.70;;;-3.80;99.90;;;;;;4450603;28;660371;-70
2023/12/03 02:32:28;;;;;;;52.73;20.70;;;-3.80;99.90;;;;;;4424476;28;660270;-70
2023/12/03 02:35:15;;;;;;;38.07;15.17;;;-3.80;99.90;;;;;;4448401;28;660605;-70
2023/12/03 02:38:02;;;;;;;29.55;11.52;;;-3.80;99.90;;;;;;4432602;28;659632;-70
2023/12/03 02:40:51;;;;;;;41.07;15.77;;;-3.80;99.90;;;;;;4455539;27;659442;-70
2023/12/03 02:43:38;;;;;;;41.80;15.73;;;-3.90;99.90;;;;;;4436284;27;659884;-70
2023/12/03 02:46:25;;;;;;;34.70;12.93;;;-3.90;99.90;;;;;;4448624;27;659913;-70
2023/12/03 02:49:12;;;;;;;28.70;11.18;;;-3.90;99.90;;;;;;4428156;28;660006;-70
2023/12/03 02:52:00;;;;;;;22.53;9.37;;;-3.90;99.90;;;;;;4455007;28;660574;-70
2023/12/03 02:54:47;;;;;;;24.00;10.30;;;-4.00;99.90;;;;;;4455642;28;658425;-70
2023/12/03 02:57:36;;;;;;;10.50;5.47;;;-3.90;99.90;;;;;;4428691;27;660831;-70
2023/12/03 03:00:23;;;;;;;36.27;15.57;;;-3.90;99.90;;;;;;4429334;28;658682;-70
2023/12/03 03:03:10;;;;;;;17.00;6.43;;;-4.00;99.90;;;;;;4452209;27;659963;-70
2023/12/03 03:05:57;;;;;;;29.93;11.20;;;-3.90;99.90;;;;;;4459503;27;658780;-72
2023/12/03 03:08:45;;;;;;;18.53;7.87;;;-3.90;99.90;;;;;;4459674;27;659799;-72
2023/12/03 03:11:32;;;;;;;38.87;15.33;;;-4.00;99.90;;;;;;4458094;27;658964;-70
2023/12/03 03:14:21;;;;;;;42.20;15.70;;;-4.00;99.90;;;;;;4449655;28;660412;-70
2023/12/03 03:17:08;;;;;;;14.07;6.17;;;-4.10;99.90;;;;;;4441767;27;659793;-70
2023/12/03 03:19:55;;;;;;;41.50;16.17;;;-4.10;99.90;;;;;;4460684;27;659406;-70
2023/12/03 03:22:42;;;;;;;24.67;11.23;;;-4.10;99.90;;;;;;4429824;28;659773;-70
2023/12/03 03:25:30;;;;;;;17.40;7.40;;;-4.00;99.90;;;;;;4454163;28;659866;-70
2023/12/03 03:28:18;;;;;;;40.27;14.20;;;-4.10;99.90;;;;;;4444117;28;658687;-72
2023/12/03 03:31:07;;;;;;;26.97;10.57;;;-4.20;99.90;;;;;;4451237;28;660419;-70
2023/12/03 03:33:55;;;;;;;33.97;12.90;;;-4.10;99.90;;;;;;4433428;27;659354;-70
2023/12/03 03:36:42;;;;;;;27.10;10.03;;;-4.20;99.90;;;;;;4431888;28;659460;-70
2023/12/03 03:39:30;;;;;;;20.23;7.57;;;-4.20;99.90;;;;;;4449585;27;660923;-70
2023/12/03 03:42:17;;;;;;;13.73;5.83;;;-4.30;99.90;;;;;;4462719;27;657808;-70
2023/12/03 03:45:05;;;;;;;29.37;11.67;;;-4.20;99.90;;;;;;4431767;28;658786;-70
2023/12/03 03:47:54;;;;;;;31.73;13.00;;;-4.20;99.90;;;;;;4440016;27;659590;-70
2023/12/03 03:50:41;;;;;;;34.13;13.07;;;-4.20;99.90;;;;;;4447104;28;660087;-71
2023/12/03 03:53:28;;;;;;;14.60;7.10;;;-4.20;99.90;;;;;;4426136;28;660067;-70
2023/12/03 03:56:16;;;;;;;31.03;12.17;;;-4.20;99.90;;;;;;4450012;28;659417;-70
2023/12/03 03:59:03;;;;;;;21.67;10.03;;;-4.30;99.90;;;;;;4430727;28;659760;-70
2023/12/03 04:01:51;;;;;;;11.03;4.67;;;-4.30;99.90;;;;;;4450280;27;659871;-70
2023/12/03 04:04:40;;;;;;;11.00;5.63;;;-4.30;99.90;;;;;;4430075;28;658957;-71
2023/12/03 04:07:27;;;;;;;30.40;12.43;;;-4.30;99.90;;;;;;4446731;28;659331;-70
2023/12/03 04:10:15;;;;;;;19.53;8.93;;;-4.30;99.90;;;;;;4460308;27;660261;-70
2023/12/03 04:13:02;;;;;;;15.03;6.47;;;-4.30;99.90;;;;;;4456850;27;658262;-72
2023/12/03 04:15:49;;;;;;;29.53;10.67;;;-4.30;99.90;;;;;;4431358;28;659366;-71
2023/12/03 04:18:38;;;;;;;28.87;12.93;;;-4.30;99.90;;;;;;4461063;28;659000;-70
2023/12/03 04:21:26;;;;;;;6.27;3.47;;;-4.30;99.90;;;;;;4418908;27;660569;-70
2023/12/03 04:24:14;;;;;;;25.23;11.10;;;-4.30;99.90;;;;;;4435434;27;658316;-72
2023/12/03 04:27:01;;;;;;;29.20;12.63;;;-4.30;99.90;;;;;;4455900;28;660472;-72
2023/12/03 04:29:48;;;;;;;21.07;9.27;;;-4.30;99.90;;;;;;4445104;27;660023;-72
2023/12/03 04:32:35;;;;;;;22.83;9.73;;;-4.40;99.90;;;;;;4462748;27;659517;-72
2023/12/03 04:35:22;;;;;;;18.77;8.45;;;-4.30;99.90;;;;;;4430870;28;659103;-72
2023/12/03 04:38:11;;;;;;;25.27;10.57;;;-4.30;99.90;;;;;;4456460;28;658725;-72
2023/12/03 04:40:59;;;;;;;20.63;9.33;;;-4.30;99.90;;;;;;4426933;28;659729;-72
2023/12/03 04:43:46;;;;;;;13.30;6.60;;;-4.40;99.90;;;;;;4454432;28;659259;-70
2023/12/03 04:46:34;;;;;;;22.10;9.57;;;-4.40;99.90;;;;;;4429055;27;658427;-72
2023/12/03 04:49:21;;;;;;;10.37;4.67;;;-4.40;99.90;;;;;;4453366;28;658717;-70
2023/12/03 04:52:08;;;;;;;13.50;4.82;;;-4.40;99.90;;;;;;4438404;27;658718;-70
2023/12/03 04:54:57;;;;;;;24.67;11.18;;;-4.40;99.90;;;;;;4444583;28;659036;-70
2023/12/03 04:57:44;;;;;;;17.47;7.00;;;-4.50;99.90;;;;;;4419004;28;659917;-70
2023/12/03 05:00:31;;;;;;;14.07;6.10;;;-4.50;99.90;;;;;;4456386;28;658617;-70
2023/12/03 05:03:18;;;;;;;20.25;9.23;;;-4.50;99.90;;;;;;4432595;27;658537;-72
2023/12/03 05:06:06;;;;;;;10.98;4.38;;;-4.40;99.90;;;;;;4454160;27;660328;-72
2023/12/03 05:08:53;;;;;;;23.23;8.43;;;-4.40;99.90;;;;;;4434251;27;659034;-72
2023/12/03 05:11:44;;;;;;;23.90;9.55;;;-4.40;99.90;;;;;;4451609;28;659297;-72
2023/12/03 05:14:32;;;;;;;22.50;10.90;;;-4.50;99.90;;;;;;4427014;28;659230;-73
2023/12/03 05:17:19;;;;;;;22.83;9.53;;;-4.50;99.90;;;;;;4431567;28;659961;-72
2023/12/03 05:20:07;;;;;;;18.67;8.13;;;-4.50;99.90;;;;;;4454226;28;659108;-72
2023/12/03 05:22:55;;;;;;;22.03;9.00;;;-4.40;99.90;;;;;;4428346;28;659371;-72
2023/12/03 05:25:42;;;;;;;18.67;7.07;;;-4.40;99.90;;;;;;4444210;27;658713;-70
2023/12/03 05:28:30;;;;;;;15.43;7.20;;;-4.40;99.90;;;;;;4429141;28;659596;-72
2023/12/03 05:31:18;;;;;;;8.87;4.80;;;-4.40;99.90;;;;;;4435785;28;658707;-72
2023/12/03 05:34:05;;;;;;;16.07;7.47;;;-4.40;99.90;;;;;;4459323;28;658021;-72
2023/12/03 05:36:53;;;;;;;9.27;4.63;;;-4.50;99.90;;;;;;4442291;28;658787;-72
2023/12/03 05:39:40;;;;;;;25.00;11.17;;;-4.50;99.90;;;;;;4453084;27;658467;-72
2023/12/03 05:42:28;;;;;;;13.43;5.73;;;-4.50;99.90;;;;;;4435857;28;659896;-72
2023/12/03 05:45:16;;;;;;;17.63;6.70;;;-4.50;99.90;;;;;;4450183;28;659372;-72
2023/12/03 05:48:04;;;;;;;22.57;10.57;;;-4.50;99.90;;;;;;4425917;28;659056;-72
2023/12/03 05:50:51;;;;;;;8.53;4.97;;;-4.50;99.90;;;;;;4452836;28;659294;-72
2023/12/03 05:53:38;;;;;;;24.80;10.82;;;-4.50;99.90;;;;;;4435109;28;657739;-72
2023/12/03 05:56:26;;;;;;;11.80;4.27;;;-4.40;99.90;;;;;;4442741;28;661210;-72
2023/12/03 05:59:13;;;;;;;25.33;10.83;;;-4.50;99.90;;;;;;4431217;28;658644;-72
2023/12/03 06:02:02;;;;;;;23.10;9.70;;;-4.40;99.90;;;;;;4453007;28;659947;-72
2023/12/03 06:04:49;;;;;;;23.60;10.07;;;-4.50;99.90;;;;;;4434302;28;658906;-72
2023/12/03 06:07:36;;;;;;;21.23;8.97;;;-4.40;99.90;;;;;;4446611;28;659918;-72
2023/12/03 06:10:23;;;;;;;5.63;3.17;;;-4.50;99.90;;;;;;4428557;28;658709;-71
2023/12/03 06:13:10;;;;;;;6.20;2.83;;;-4.40;99.90;;;;;;4427984;28;657695;-71
2023/12/03 06:15:57;;;;;;;19.60;9.00;;;-4.40;99.90;;;;;;4410158;28;657547;-72
2023/12/03 06:18:46;;;;;;;21.97;9.87;;;-4.40;99.90;;;;;;4425835;28;659455;-72
2023/12/03 06:21:33;;;;;;;36.77;7.03;;;-4.40;99.90;;;;;;4405629;28;658917;-72
2023/12/03 06:24:20;;;;;;;20.40;9.93;;;-4.40;99.90;;;;;;4428570;28;659732;-72
2023/12/03 06:27:08;;;;;;;18.33;9.33;;;-4.40;99.90;;;;;;4408018;28;659242;-71
2023/12/03 06:29:55;;;;;;;16.23;8.30;;;-4.40;99.90;;;;;;4425723;28;660334;-71
2023/12/03 06:32:42;;;;;;;13.43;4.43;;;-4.40;99.90;;;;;;4424588;28;658850;-71
2023/12/03 06:35:31;;;;;;;23.43;9.10;;;-4.30;99.90;;;;;;4422593;28;658869;-71
2023/12/03 06:38:18;;;;;;;19.38;8.18;;;-4.30;99.90;;;;;;4430948;27;658882;-71
2023/12/03 06:41:06;;;;;;;28.13;10.80;;;-4.30;99.90;;;;;;4417184;28;659038;-72
2023/12/03 06:43:53;;;;;;;18.93;8.23;;;-4.40;99.90;;;;;;4403651;28;660524;-71
2023/12/03 06:46:40;;;;;;;19.80;9.00;;;-4.30;99.90;;;;;;4433084;28;658634;-72
2023/12/03 06:49:28;;;;;;;23.93;10.17;;;-4.30;99.90;;;;;;4405088;28;658457;-72
2023/12/03 06:52:16;;;;;;;18.73;8.43;;;-4.20;99.90;;;;;;4422849;28;660268;-71
2023/12/03 06:55:04;;;;;;;15.52;6.55;;;-4.10;99.90;;;;;;4408256;28;659368;-71
2023/12/03 06:57:51;;;;;;;13.67;6.70;;;-4.20;99.90;;;;;;4423067;28;658696;-71
2023/12/03 07:00:38;;;;;;;9.10;4.23;;;-4.10;99.90;;;;;;4402409;28;659208;-71
2023/12/03 07:03:25;;;;;;;18.00;8.83;;;-4.10;99.90;;;;;;4429606;28;658233;-71
2023/12/03 07:06:13;;;;;;;5.63;4.17;;;-4.00;99.90;;;;;;4406622;28;658917;-71
2023/12/03 07:09:02;;;;;;;16.35;7.78;;;-4.00;99.90;;;;;;4428702;28;657665;-71
2023/12/03 07:11:49;;;;;;;13.77;4.43;;;-4.10;99.90;;;;;;4417033;28;659794;-71
2023/12/03 07:14:36;;;;;;;12.63;5.57;;;-4.00;99.90;;;;;;4460935;27;658538;-71
2023/12/03 07:17:23;;;;;;;17.95;8.57;;;-4.00;99.90;;;;;;4439061;27;658644;-71
2023/12/03 07:20:11;;;;;;;21.10;9.40;;;-4.10;99.90;;;;;;4454320;28;659185;-71
2023/12/03 07:22:58;;;;;;;18.37;8.20;;;-4.10;99.90;;;;;;4420899;27;658809;-71
2023/12/03 07:25:47;;;;;;;11.53;5.77;;;-4.00;99.90;;;;;;4450661;27;658918;-73
2023/12/03 07:28:34;;;;;;;24.10;9.60;;;-4.00;99.90;;;;;;4432736;28;659173;-71
2023/12/03 07:31:22;;;;;;;42.30;8.13;;;-4.00;99.90;;;;;;4454421;27;658483;-71
2023/12/03 07:34:09;;;;;;;23.07;9.27;;;-4.00;99.90;;;;;;4433465;27;658775;-71
2023/12/03 07:36:56;;;;;;;5.23;2.83;;;-3.90;99.90;;;;;;4447062;28;659356;-71
2023/12/03 07:39:43;;;;;;;17.47;8.40;;;-3.90;99.90;;;;;;4439884;28;657599;-71
2023/12/03 07:42:32;;;;;;;10.07;4.93;;;-3.90;99.90;;;;;;4445975;27;658866;-71
2023/12/03 07:45:19;;;;;;;12.33;5.27;;;-3.80;99.90;;;;;;4433180;27;659266;-71
2023/12/03 07:48:06;;;;;;;16.97;7.50;;;-3.80;99.90;;;;;;4461126;27;658365;-71
2023/12/03 07:50:53;;;;;;;23.23;10.27;;;-3.80;99.90;;;;;;4443932;27;658897;-71
2023/12/03 07:53:40;;;;;;;9.90;3.03;;;-3.70;99.90;;;;;;4444259;27;660221;-71
2023/12/03 07:56:35;;;;;;;21.33;8.57;;;-3.70;99.90;;;;;;4433146;28;657412;-71
2023/12/03 07:59:23;;;;;;;10.67;5.70;;;-3.70;99.90;;;;;;4418012;27;659023;-71
2023/12/03 08:02:10;;;;;;;4.30;2.53;;;-3.60;99.90;;;;;;4428894;28;659193;-71
2023/12/03 08:04:57;;;;;;;10.70;4.97;;;-3.60;99.90;;;;;;4428499;28;657894;-71
2023/12/03 08:07:45;;;;;;;18.70;8.50;;;-3.60;99.90;;;;;;4446739;28;659631;-71
2023/12/03 08:10:32;;;;;;;21.53;9.33;;;-3.60;99.90;;;;;;4446501;28;658300;-71
2023/12/03 08:13:20;;;;;;;13.70;5.90;;;-3.60;99.90;;;;;;4459821;27;659337;-71
2023/12/03 08:16:09;;;;;;;14.63;5.30;;;-3.50;99.90;;;;;;4455733;27;657878;-71
2023/12/03 08:18:57;;;;;;;16.17;7.50;;;-3.40;99.90;;;;;;4434864;28;659403;-71
2023/12/03 08:21:44;;;;;;;15.27;7.60;;;-3.30;99.90;;;;;;4430548;27;658606;-71
2023/12/03 08:24:31;;;;;;;16.53;6.30;;;-3.40;99.90;;;;;;4445509;28;658683;-71
2023/12/03 08:27:18;;;;;;;25.80;10.97;;;-3.30;99.90;;;;;;4429274;28;658952;-71
2023/12/03 08:30:07;;;;;;;16.83;7.40;;;-3.30;99.90;;;;;;4459579;27;659756;-71
2023/12/03 08:32:56;;;;;;;8.93;4.63;;;-3.40;99.90;;;;;;4428101;27;659596;-71
2023/12/03 08:35:43;;;;;;;23.23;8.93;;;-3.30;99.90;;;;;;4422407;27;658084;-71
2023/12/03 08:38:31;;;;;;;15.43;5.57;;;-3.30;99.90;;;;;;4460987;27;659198;-71
2023/12/03 08:41:18;;;;;;;15.63;6.13;;;-3.40;99.90;;;;;;4436850;27;658877;-71
2023/12/03 08:44:05;;;;;;;14.20;6.60;;;-3.20;99.90;;;;;;4459928;27;659000;-71
2023/12/03 08:46:53;;;;;;;12.97;6.30;;;-3.20;99.90;;;;;;4439309;27;658416;-71
2023/12/03 08:49:41;;;;;;;19.23;8.37;;;-3.30;99.90;;;;;;4461451;27;659059;-71
2023/12/03 08:52:28;;;;;;;13.20;6.00;;;-3.30;99.90;;;;;;4440086;27;658468;-71
2023/12/03 08:55:15;;;;;;;20.13;8.35;;;-3.30;99.90;;;;;;4458630;28;658662;-71
2023/12/03 08:58:03;;;;;;;24.63;11.20;;;-3.20;99.90;;;;;;4438232;27;658777;-71
2023/12/03 09:00:51;;;;;;;17.93;7.97;;;-3.30;99.90;;;;;;4441339;28;660360;-71
2023/12/03 09:03:40;;;;;;;15.57;7.33;;;-3.20;99.90;;;;;;4425974;27;658860;-71
2023/12/03 09:06:29;;;;;;;14.93;6.27;;;-3.10;99.90;;;;;;4447517;27;658786;-72
2023/12/03 09:09:16;;;;;;;17.97;7.43;;;-3.10;99.90;;;;;;4445599;28;658933;-71
2023/12/03 09:12:04;;;;;;;12.70;5.33;;;-3.00;99.90;;;;;;4418860;28;658897;-71
2023/12/03 09:14:51;;;;;;;29.33;12.90;;;-2.90;99.90;;;;;;4446272;28;659584;-71
2023/12/03 09:17:38;;;;;;;20.07;9.70;;;-2.90;99.90;;;;;;4429944;28;660520;-71
2023/12/03 09:20:25;;;;;;;17.27;8.73;;;-3.00;99.90;;;;;;4435809;28;658725;-71
2023/12/03 09:23:14;;;;;;;16.00;6.00;;;-3.00;99.90;;;;;;4415485;28;658873;-71
2023/12/03 09:26:01;;;;;;;11.73;5.13;;;-2.80;99.90;;;;;;4458242;28;658282;-71
2023/12/03 09:28:48;;;;;;;13.67;5.87;;;-2.70;99.90;;;;;;4429881;28;658853;-71
2023/12/03 09:31:35;;;;;;;28.13;10.80;;;-2.80;99.90;;;;;;4450479;28;659219;-71
2023/12/03 09:34:23;;;;;;;20.47;8.70;;;-2.70;99.90;;;;;;4429030;28;660463;-71
2023/12/03 09:37:10;;;;;;;7.10;3.17;;;-2.80;99.90;;;;;;4441069;28;659203;-71
2023/12/03 09:39:59;;;;;;;21.63;9.83;;;-2.90;99.90;;;;;;4423688;28;658259;-71
2023/12/03 09:42:47;;;;;;;16.13;6.80;;;-2.90;99.90;;;;;;4459176;28;658449;-71
2023/12/03 09:45:34;;;;;;;22.87;9.67;;;-2.80;99.90;;;;;;4426938;28;659728;-71
2023/12/03 09:48:21;;;;;;;10.03;5.73;;;-2.60;99.90;;;;;;4443969;28;658703;-71
2023/12/03 09:51:09;;;;;;;19.60;8.40;;;-2.70;99.90;;;;;;4429525;27;658568;-71
2023/12/03 09:53:57;;;;;;;21.67;8.37;;;-2.70;99.90;;;;;;4449436;28;659242;-71
2023/12/03 09:56:46;;;;;;;20.00;8.10;;;-2.30;99.90;;;;;;4432709;28;659922;-71
2023/12/03 09:59:34;;;;;;;9.50;4.33;;;-2.30;99.90;;;;;;4428773;28;658555;-71
2023/12/03 10:02:26;;;;;;;9.43;5.13;;;-2.40;99.90;;;;;;4450908;28;658255;-71
2023/12/03 10:05:13;;;;;;;17.00;7.63;;;-2.40;99.90;;;;;;4421646;28;658095;-71
2023/12/03 10:08:00;;;;;;;12.53;5.03;;;-2.40;99.90;;;;;;4435777;28;659280;-71
2023/12/03 10:10:47;;;;;;;21.30;9.40;;;-2.20;99.90;;;;;;4429524;28;659619;-71
2023/12/03 10:13:36;;;;;;;19.83;10.07;;;-2.30;99.90;;;;;;4457275;28;658890;-72
2023/12/03 10:16:23;;;;;;;16.80;7.77;;;-2.50;99.90;;;;;;4423264;28;660661;-71
2023/12/03 10:19:10;;;;;;;18.08;7.78;;;-2.50;99.90;;;;;;4448591;28;660173;-71
2023/12/03 10:21:58;;;;;;;19.27;7.30;;;-2.40;99.90;;;;;;4433347;28;658803;-72
2023/12/03 10:24:48;;;;;;;20.87;8.00;;;-2.40;99.90;;;;;;4448002;28;659184;-72
2023/12/03 10:27:35;;;;;;;9.02;4.13;;;-2.50;99.90;;;;;;4430622;28;659386;-71
2023/12/03 10:30:24;;;;;;;9.33;4.10;;;-2.50;99.90;;;;;;4435938;28;658413;-71
2023/12/03 10:33:11;;;;;;;17.87;7.27;;;-2.50;99.90;;;;;;4447519;28;657735;-71
2023/12/03 10:36:02;;;;;;;16.80;8.57;;;-2.40;99.90;;;;;;4418314;28;658647;-71
2023/12/03 10:38:49;;;;;;;8.77;3.93;;;-2.50;99.90;;;;;;4426177;28;659491;-71
2023/12/03 10:41:36;;;;;;;19.30;7.33;;;-2.50;99.90;;;;;;4452369;28;658385;-71
2023/12/03 10:44:24;;;;;;;9.47;4.53;;;-2.50;99.90;;;;;;4430337;28;659069;-71
2023/12/03 10:47:14;;;;;;;14.45;6.57;;;-2.50;99.90;;;;;;4439496;28;657562;-71
2023/12/03 10:50:02;;;;;;;15.27;6.73;;;-2.50;99.90;;;;;;4420265;28;659315;-70
2023/12/03 10:52:49;;;;;;;21.77;9.00;;;-2.50;99.90;;;;;;4429851;28;660020;-71
2023/12/03 10:55:36;;;;;;;21.33;8.60;;;-2.60;99.90;;;;;;4459807;28;658510;-71
2023/12/03 10:58:24;;;;;;;18.23;8.30;;;-2.50;99.90;;;;;;4422632;27;658942;-71
2023/12/03 11:01:17;;;;;;;5.20;3.03;;;-2.40;99.90;;;;;;4450731;27;659080;-71
2023/12/03 11:04:09;;;;;;;15.50;6.93;;;-2.30;99.90;;;;;;4411798;28;658145;-71
2023/12/03 11:06:58;;;;;;;16.33;7.30;;;-2.60;99.90;;;;;;4436633;27;658696;-71
2023/12/03 11:09:45;;;;;;;5.37;2.03;;;-2.70;99.90;;;;;;4428482;27;659736;-71
2023/12/03 11:12:32;;;;;;;12.43;5.70;;;-2.60;99.90;;;;;;4444435;27;657742;-71
2023/12/03 11:15:20;;;;;;;15.83;7.00;;;-2.50;99.90;;;;;;4457102;27;659449;-71
2023/12/03 11:18:08;;;;;;;15.03;6.30;;;-2.60;99.90;;;;;;4442862;27;658838;-71
2023/12/03 11:21:00;;;;;;;15.33;7.13;;;-2.60;99.90;;;;;;4462420;27;658534;-71
2023/12/03 11:23:58;;;;;;;13.00;6.17;;;-2.80;99.90;;;;;;4460578;27;658673;-71
2023/12/03 11:26:45;;;;;;;18.67;7.97;;;-2.70;99.90;;;;;;4423433;28;658317;-71
2023/12/03 11:29:49;;;;;;;17.10;7.90;;;-2.70;99.90;;;;;;4446004;27;659261;-71
2023/12/03 11:32:36;;;;;;;13.87;5.33;;;-2.70;99.90;;;;;;4429172;27;658360;-71
2023/12/03 11:35:25;;;;;;;8.17;3.17;;;-2.50;99.90;;;;;;4437844;27;659551;-71
2023/12/03 11:38:17;;;;;;;16.90;6.70;;;-2.50;99.90;;;;;;4462814;27;656797;-71
2023/12/03 11:41:05;;;;;;;14.17;6.60;;;-2.60;99.90;;;;;;4437254;28;658328;-71
2023/12/03 11:43:54;;;;;;;17.67;8.03;;;-2.60;99.90;;;;;;4437382;27;658842;-71
2023/12/03 11:46:46;;;;;;;22.70;7.53;;;-2.70;99.90;;;;;;4456577;27;659227;-71
2023/12/03 11:49:34;;;;;;;14.43;6.03;;;-2.60;99.90;;;;;;4410663;27;658847;-70
2023/12/03 11:52:21;;;;;;;10.73;6.17;;;-2.80;99.90;;;;;;4451821;27;659044;-70
2023/12/03 11:55:12;;;;;;;16.40;6.77;;;-2.80;99.90;;;;;;4432689;27;658639;-71
2023/12/03 11:57:59;;;;;;;12.37;4.83;;;-2.80;99.90;;;;;;4433385;28;659331;-71
2023/12/03 12:00:46;;;;;;;16.70;8.43;;;-2.70;99.90;;;;;;4449071;28;658247;-71
2023/12/03 12:03:34;;;;;;;10.13;4.97;;;-2.80;99.90;;;;;;4429222;27;658495;-71
2023/12/03 12:06:26;;;;;;;20.20;8.50;;;-2.70;99.90;;;;;;4455346;27;658586;-71
2023/12/03 12:09:13;;;;;;;26.23;8.63;;;-2.70;99.90;;;;;;4425671;27;659045;-71
2023/12/03 12:12:02;;;;;;;16.92;6.45;;;-2.70;99.90;;;;;;4445435;28;659694;-72
2023/12/03 12:14:50;;;;;;;21.90;9.00;;;-2.70;99.90;;;;;;4438977;27;659340;-72
2023/12/03 12:17:37;;;;;;;16.93;8.23;;;-2.80;99.90;;;;;;4439457;28;659190;-71
2023/12/03 12:20:25;;;;;;;9.80;4.03;;;-2.70;99.90;;;;;;4454850;28;659886;-71
2023/12/03 12:23:12;;;;;;;24.73;10.53;;;-2.80;99.90;;;;;;4441573;28;657852;-72
2023/12/03 12:25:59;;;;;;;18.37;8.73;;;-2.90;99.90;;;;;;4446084;27;660490;-71
2023/12/03 12:28:48;;;;;;;8.10;3.50;;;-2.90;99.90;;;;;;4447885;27;658499;-71
2023/12/03 12:31:35;;;;;;;20.97;9.00;;;-2.80;99.90;;;;;;4426751;27;657990;-71
2023/12/03 12:34:24;;;;;;;23.55;8.02;;;-2.90;99.90;;;;;;4439576;28;658939;-72
2023/12/03 12:37:11;;;;;;;21.10;8.87;;;-2.90;99.90;;;;;;4434813;27;658290;-71
2023/12/03 12:40:07;;;;;;;20.60;8.40;;;-2.80;99.90;;;;;;4437793;27;658853;-71
2023/12/03 12:43:04;;;;;;;15.30;5.57;;;-2.90;99.90;;;;;;4410188;27;658997;-71
2023/12/03 12:45:53;;;;;;;17.53;8.40;;;-3.00;99.90;;;;;;4423089;28;658542;-72
2023/12/03 12:48:40;;;;;;;12.67;5.23;;;-3.00;99.90;;;;;;4427736;28;659011;-71
2023/12/03 12:51:27;;;;;;;20.30;7.37;;;-3.00;99.90;;;;;;4423658;28;658310;-71
2023/12/03 12:54:15;;;;;;;11.43;5.80;;;-2.90;99.90;;;;;;4451998;27;658993;-71
2023/12/03 12:57:02;;;;;;;14.00;6.27;;;-2.90;99.90;;;;;;4424210;28;658679;-72
2023/12/03 12:59:51;;;;;;;27.53;9.90;;;-2.90;99.90;;;;;;4457923;28;659171;-71
2023/12/03 13:02:42;;;;;;;10.85;5.20;;;-2.80;99.90;;;;;;4425298;28;659431;-71
2023/12/03 13:05:29;;;;;;;19.67;8.67;;;-2.80;99.90;;;;;;4433847;27;659692;-71
2023/12/03 13:08:16;;;;;;;19.37;8.50;;;-3.00;99.90;;;;;;4451958;28;658418;-71
2023/12/03 13:11:04;;;;;;;14.90;3.77;;;-3.00;99.90;;;;;;4421016;28;658919;-71
2023/12/03 13:13:51;;;;;;;18.93;8.43;;;-3.00;99.90;;;;;;4455119;27;659236;-71
2023/12/03 13:16:38;;;;;;;19.57;8.67;;;-3.00;99.90;;;;;;4430815;28;658216;-71
2023/12/03 13:19:27;;;;;;;23.00;8.05;;;-3.10;99.90;;;;;;4450026;28;659116;-71
2023/12/03 13:22:14;;;;;;;21.07;9.40;;;-3.20;99.90;;;;;;4429243;28;659743;-71
2023/12/03 13:25:01;;;;;;;16.90;6.90;;;-3.10;99.90;;;;;;4447617;28;659470;-72
2023/12/03 13:27:49;;;;;;;17.40;5.87;;;-3.00;99.90;;;;;;4440761;27;658570;-72
2023/12/03 13:30:36;;;;;;;21.57;9.20;;;-3.10;99.90;;;;;;4456740;27;658861;-71
2023/12/03 13:33:23;;;;;;;13.80;5.93;;;-3.00;99.90;;;;;;4433589;27;658884;-71
2023/12/03 13:36:13;;;;;;;26.20;10.57;;;-3.00;99.90;;;;;;4453193;27;659196;-71
2023/12/03 13:39:00;;;;;;;6.73;3.47;;;-3.10;99.90;;;;;;4437341;27;660590;-71
2023/12/03 13:41:47;;;;;;;22.03;9.37;;;-3.00;99.90;;;;;;4455377;27;658251;-71
2023/12/03 13:44:35;;;;;;;25.53;10.43;;;-3.00;99.90;;;;;;4446060;28;659269;-71
2023/12/03 13:47:22;;;;;;;15.90;7.47;;;-3.10;99.90;;;;;;4447762;28;659943;-71
2023/12/03 13:50:10;;;;;;;22.02;8.30;;;-3.10;99.90;;;;;;4456602;28;659448;-71
2023/12/03 13:52:59;;;;;;;6.17;2.33;;;-3.10;99.90;;;;;;4432587;28;658613;-71
2023/12/03 13:55:46;;;;;;;26.43;10.60;;;-3.00;99.90;;;;;;4440349;28;657638;-71
2023/12/03 13:58:33;;;;;;;11.97;4.03;;;-3.10;99.90;;;;;;4429256;28;659753;-71
2023/12/03 14:01:20;;;;;;;18.80;5.90;;;-3.10;99.90;;;;;;4442194;28;658851;-71
2023/12/03 14:04:08;;;;;;;19.23;6.33;;;-3.30;99.90;;;;;;4427483;28;658678;-71
2023/12/03 14:06:55;;;;;;;7.33;3.57;;;-3.30;99.90;;;;;;4443576;28;659317;-71
2023/12/03 14:09:44;;;;;;;12.77;3.80;;;-3.40;99.90;;;;;;4431087;28;657936;-71